createdAt,value
2022-12-15T00:02:19.204Z,15.37
2022-12-15T00:05:05.052Z,17.37
2022-12-15T00:07:50.666Z,15.20
2022-12-15T00:10:36.223Z,16.10
2022-12-15T00:13:21.636Z,16.13
2022-12-15T00:16:07.000Z,15.47
2022-12-15T00:18:52.401Z,16.83
2022-12-15T00:21:37.694Z,16.43
2022-12-15T00:24:23.226Z,15.50
2022-12-15T00:27:08.550Z,15.70
2022-12-15T00:29:54.042Z,15.30
2022-12-15T00:32:40.532Z,15.80
2022-12-15T00:35:29.315Z,15.97
2022-12-15T00:38:14.963Z,15.27
2022-12-15T00:40:41.575Z,15.20
2022-12-15T00:43:11.853Z,14.63
2022-12-15T00:45:57.141Z,14.70
2022-12-15T00:48:23.735Z,13.80
2022-12-15T00:50:53.124Z,15.40
2022-12-15T00:53:42.715Z,14.50
2022-12-15T00:56:28.591Z,14.53
2022-12-15T00:59:14.751Z,14.03
2022-12-15T01:02:01.356Z,14.83
2022-12-15T01:04:47.323Z,14.57
2022-12-15T01:07:32.882Z,14.83
2022-12-15T01:10:18.212Z,14.53
2022-12-15T01:13:04.437Z,14.73
2022-12-15T01:15:50.002Z,14.20
2022-12-15T01:18:36.115Z,15.07
2022-12-15T01:21:05.229Z,13.53
2022-12-15T01:23:33.164Z,14.20
2022-12-15T01:26:00.896Z,15.27
2022-12-15T01:28:27.608Z,14.30
2022-12-15T01:30:54.550Z,14.17
2022-12-15T01:33:22.280Z,14.23
2022-12-15T01:35:59.375Z,14.97
2022-12-15T01:38:27.530Z,14.07
2022-12-15T01:40:58.606Z,14.63
2022-12-15T01:43:29.718Z,13.67
2022-12-15T01:46:12.469Z,13.63
2022-12-15T01:48:44.636Z,14.27
2022-12-15T01:51:17.210Z,13.20
2022-12-15T01:54:00.163Z,14.27
2022-12-15T01:56:32.503Z,13.43
2022-12-15T01:59:07.332Z,14.20
2022-12-15T02:01:34.098Z,14.37
2022-12-15T02:04:02.167Z,14.50
2022-12-15T02:06:29.784Z,13.40
2022-12-15T02:08:58.879Z,13.60
2022-12-15T02:11:46.580Z,13.43
2022-12-15T02:14:35.298Z,13.30
2022-12-15T02:17:09.733Z,13.60
2022-12-15T02:19:54.606Z,14.33
2022-12-15T02:22:45.853Z,13.53
2022-12-15T02:25:44.804Z,13.17
2022-12-15T02:28:17.428Z,13.13
2022-12-15T02:31:12.948Z,13.67
2022-12-15T02:34:12.255Z,12.70
2022-12-15T02:36:42.769Z,13.07
2022-12-15T02:40:14.270Z,13.77
2022-12-15T02:42:46.704Z,12.70
2022-12-15T02:45:26.605Z,12.60
2022-12-15T02:47:56.232Z,12.50
2022-12-15T02:50:41.584Z,13.53
2022-12-15T02:53:17.309Z,13.67
2022-12-15T02:56:05.574Z,12.80
2022-12-15T02:58:57.223Z,12.70
2022-12-15T03:01:42.087Z,12.67
2022-12-15T03:04:10.647Z,12.27
2022-12-15T03:06:37.549Z,12.73
2022-12-15T03:09:04.557Z,12.60
2022-12-15T03:11:34.075Z,12.50
2022-12-15T03:14:03.342Z,12.73
2022-12-15T03:16:29.970Z,12.60
2022-12-15T03:18:58.606Z,11.33
2022-12-15T03:21:28.636Z,13.27
2022-12-15T03:23:56.244Z,13.13
2022-12-15T03:26:22.859Z,12.20
2022-12-15T03:28:49.511Z,12.63
2022-12-15T03:31:16.156Z,12.93
2022-12-15T03:33:42.799Z,12.03
2022-12-15T03:36:09.687Z,13.33
2022-12-15T03:38:36.335Z,11.87
2022-12-15T03:41:03.103Z,12.33
2022-12-15T03:43:32.478Z,12.63
2022-12-15T03:45:59.393Z,12.43
2022-12-15T03:48:26.046Z,13.30
2022-12-15T03:50:54.913Z,12.03
2022-12-15T03:53:21.549Z,12.30
2022-12-15T03:55:48.138Z,12.50
2022-12-15T03:58:14.725Z,14.03
2022-12-15T04:00:41.342Z,13.57
2022-12-15T04:03:11.225Z,13.00
2022-12-15T04:05:38.107Z,12.57
2022-12-15T04:08:05.757Z,12.73
2022-12-15T04:10:35.042Z,12.83
2022-12-15T04:13:06.177Z,12.67
2022-12-15T04:15:33.998Z,12.33
2022-12-15T04:18:05.468Z,12.77
2022-12-15T04:20:33.130Z,12.27
2022-12-15T04:23:00.295Z,12.40
2022-12-15T04:25:46.162Z,12.03
2022-12-15T04:28:35.282Z,12.57
2022-12-15T04:31:36.648Z,12.50
2022-12-15T04:34:25.011Z,12.63
2022-12-15T04:37:12.493Z,12.67
2022-12-15T04:40:02.464Z,11.97
2022-12-15T04:42:55.142Z,12.20
2022-12-15T04:45:45.101Z,12.43
2022-12-15T04:48:30.410Z,13.67
2022-12-15T04:51:15.862Z,12.80
2022-12-15T04:54:04.327Z,12.93
2022-12-15T04:56:50.759Z,13.20
2022-12-15T04:59:36.412Z,13.03
2022-12-15T05:02:24.927Z,13.87
2022-12-15T05:05:11.908Z,12.77
2022-12-15T05:08:07.539Z,12.50
2022-12-15T05:10:52.876Z,11.93
2022-12-15T05:13:38.272Z,11.90
2022-12-15T05:16:24.115Z,12.30
2022-12-15T05:19:09.378Z,11.00
2022-12-15T05:21:54.450Z,12.33
2022-12-15T05:24:39.982Z,12.70
2022-12-15T05:27:25.368Z,12.03
2022-12-15T05:30:10.819Z,11.63
2022-12-15T05:32:37.968Z,11.23
2022-12-15T05:35:04.891Z,12.80
2022-12-15T05:37:31.676Z,11.53
2022-12-15T05:39:58.250Z,11.37
2022-12-15T05:42:24.864Z,12.23
2022-12-15T05:44:51.507Z,12.10
2022-12-15T05:47:20.075Z,12.77
2022-12-15T05:49:52.451Z,12.47
2022-12-15T05:52:19.105Z,14.27
2022-12-15T05:54:45.692Z,13.27
2022-12-15T05:57:12.269Z,13.37
2022-12-15T05:59:38.917Z,13.43
2022-12-15T06:02:05.576Z,12.90
2022-12-15T06:04:32.332Z,12.80
2022-12-15T06:06:58.989Z,13.10
2022-12-15T06:09:25.624Z,12.70
2022-12-15T06:11:52.201Z,13.40
2022-12-15T06:14:19.780Z,13.13
2022-12-15T06:16:46.464Z,13.00
2022-12-15T06:19:17.951Z,14.50
2022-12-15T06:21:44.559Z,13.00
2022-12-15T06:24:11.183Z,12.37
2022-12-15T06:26:39.465Z,12.33
2022-12-15T06:29:08.535Z,12.80
2022-12-15T06:31:36.555Z,12.40
2022-12-15T06:34:13.009Z,13.10
2022-12-15T06:36:39.629Z,13.30
2022-12-15T06:39:09.122Z,13.60
2022-12-15T06:41:35.801Z,13.57
2022-12-15T06:44:03.318Z,13.20
2022-12-15T06:46:31.541Z,13.33
2022-12-15T06:48:58.887Z,13.00
2022-12-15T06:51:26.194Z,13.27
2022-12-15T06:53:56.210Z,13.20
2022-12-15T06:56:32.635Z,13.37
2022-12-15T06:59:00.652Z,12.60
2022-12-15T07:01:27.838Z,12.73
2022-12-15T07:03:55.619Z,13.47
2022-12-15T07:06:23.034Z,13.27
2022-12-15T07:08:56.430Z,13.93
2022-12-15T07:11:23.417Z,13.20
2022-12-15T07:13:53.993Z,13.13
2022-12-15T07:16:22.584Z,13.27
2022-12-15T07:18:49.725Z,12.43
2022-12-15T07:21:16.373Z,13.30
2022-12-15T07:23:54.616Z,13.30
2022-12-15T07:26:22.753Z,13.43
2022-12-15T07:28:49.550Z,13.33
2022-12-15T07:31:16.284Z,12.73
2022-12-15T07:33:43.416Z,13.13
2022-12-15T07:36:10.893Z,12.90
2022-12-15T07:38:37.903Z,13.30
2022-12-15T07:41:06.719Z,13.20
2022-12-15T07:43:34.248Z,14.80
2022-12-15T07:46:03.591Z,12.90
2022-12-15T07:48:30.357Z,13.63
2022-12-15T07:51:08.369Z,12.63
2022-12-15T07:53:38.151Z,13.60
2022-12-15T07:56:08.639Z,13.73
2022-12-15T07:58:36.896Z,13.70
2022-12-15T08:01:06.060Z,13.37
2022-12-15T08:03:33.868Z,14.37
2022-12-15T08:06:09.895Z,13.43
2022-12-15T08:08:36.832Z,13.87
2022-12-15T08:11:07.814Z,14.17
2022-12-15T08:16:22.115Z,14.97
2022-12-15T08:18:49.036Z,14.60
2022-12-15T08:21:15.789Z,14.27
2022-12-15T08:23:42.403Z,15.13
2022-12-15T08:26:11.889Z,13.53
2022-12-15T08:28:40.369Z,13.57
2022-12-15T08:31:12.399Z,13.73
2022-12-15T08:33:39.579Z,13.53
2022-12-15T08:36:10.247Z,13.30
2022-12-15T08:38:41.354Z,12.90
2022-12-15T08:41:16.099Z,13.83
2022-12-15T08:43:48.147Z,13.40
2022-12-15T08:46:20.864Z,13.40
2022-12-15T08:48:47.832Z,14.03
2022-12-15T08:51:14.775Z,14.30
2022-12-15T08:53:41.651Z,13.67
2022-12-15T08:56:12.371Z,15.40
2022-12-15T08:58:39.753Z,15.80
2022-12-15T09:01:09.294Z,15.70
2022-12-15T09:03:36.806Z,14.67
2022-12-15T09:06:05.710Z,13.87
2022-12-15T09:08:33.057Z,14.27
2022-12-15T09:11:01.911Z,14.27
2022-12-15T09:13:29.708Z,14.53
2022-12-15T09:16:13.475Z,14.00
2022-12-15T09:18:43.210Z,15.03
2022-12-15T09:21:11.180Z,14.77
2022-12-15T09:23:38.318Z,13.17
2022-12-15T09:26:07.840Z,14.40
2022-12-15T09:28:34.890Z,13.67
2022-12-15T09:31:07.095Z,14.47
2022-12-15T09:33:34.525Z,14.57
2022-12-15T09:36:01.838Z,14.20
2022-12-15T09:38:28.452Z,13.50
2022-12-15T09:40:55.113Z,13.70
2022-12-15T09:43:46.756Z,14.73
2022-12-15T09:46:38.056Z,20.50
2022-12-15T09:49:25.072Z,13.90
2022-12-15T09:52:10.365Z,13.00
2022-12-15T09:54:38.521Z,13.10
2022-12-15T09:57:18.314Z,12.90
2022-12-15T09:59:57.851Z,12.30
2022-12-15T10:02:43.318Z,12.40
2022-12-15T10:08:56.704Z,12.33
2022-12-15T10:11:50.646Z,12.17
2022-12-15T10:14:23.370Z,12.47
2022-12-15T10:17:14.253Z,12.40
2022-12-15T10:20:03.917Z,11.63
2022-12-15T10:22:34.280Z,11.43
2022-12-15T10:25:30.149Z,11.60
2022-12-15T10:28:17.474Z,11.13
2022-12-15T10:30:59.368Z,11.77
2022-12-15T10:33:29.043Z,12.43
2022-12-15T10:35:56.196Z,11.40
2022-12-15T10:38:42.294Z,12.47
2022-12-15T10:41:16.455Z,12.40
2022-12-15T10:43:46.797Z,12.33
2022-12-15T10:46:19.264Z,12.27
2022-12-15T10:48:51.427Z,11.77
2022-12-15T10:51:31.493Z,12.43
2022-12-15T10:54:09.567Z,11.90
2022-12-15T10:56:58.028Z,12.17
2022-12-15T10:59:25.792Z,12.27
2022-12-15T11:01:52.958Z,11.90
2022-12-15T11:04:27.896Z,26.27
2022-12-15T11:07:03.384Z,14.67
2022-12-15T11:09:39.787Z,12.47
2022-12-15T11:12:42.984Z,16.03
2022-12-15T11:15:39.162Z,11.57
2022-12-15T11:18:14.172Z,11.00
2022-12-15T11:20:48.560Z,11.40
2022-12-15T11:23:27.602Z,11.23
2022-12-15T11:26:07.233Z,11.07
2022-12-15T11:28:45.809Z,10.77
2022-12-15T11:31:24.988Z,11.30
2022-12-15T11:33:54.232Z,10.83
2022-12-15T11:36:53.765Z,10.23
2022-12-15T11:39:55.751Z,11.43
2022-12-15T11:42:34.214Z,9.80
2022-12-15T11:45:32.919Z,10.70
2022-12-15T11:48:18.527Z,10.07
2022-12-15T11:50:59.281Z,9.07
2022-12-15T11:53:44.620Z,9.17
2022-12-15T11:56:33.501Z,8.53
2022-12-15T11:59:33.901Z,8.20
2022-12-15T12:02:33.827Z,7.80
2022-12-15T12:05:26.736Z,7.63
2022-12-15T12:08:00.874Z,8.07
2022-12-15T12:10:36.496Z,7.47
2022-12-15T12:13:21.344Z,7.80
2022-12-15T12:16:09.708Z,7.50
2022-12-15T12:18:42.943Z,7.83
2022-12-15T12:21:15.289Z,8.20
2022-12-15T12:24:01.827Z,7.60
2022-12-15T12:26:38.677Z,8.10
2022-12-15T12:29:23.119Z,7.80
2022-12-15T12:32:15.890Z,7.83
2022-12-15T12:35:31.249Z,7.37
2022-12-15T12:38:04.726Z,7.77
2022-12-15T12:40:40.179Z,7.87
2022-12-15T12:43:13.536Z,8.03
2022-12-15T12:45:50.282Z,7.93
2022-12-15T12:48:43.735Z,9.90
2022-12-15T12:51:33.838Z,8.27
2022-12-15T12:54:01.340Z,7.90
2022-12-15T12:56:44.369Z,7.50
2022-12-15T12:59:30.484Z,7.73
2022-12-15T13:02:11.149Z,7.37
2022-12-15T13:04:40.533Z,8.07
2022-12-15T13:07:37.679Z,7.67
2022-12-15T13:10:19.907Z,7.47
2022-12-15T13:12:54.443Z,7.77
2022-12-15T13:15:27.685Z,7.20
2022-12-15T13:18:06.358Z,7.73
2022-12-15T13:20:35.735Z,6.90
2022-12-15T13:23:21.129Z,7.47
2022-12-15T13:25:56.963Z,7.30
2022-12-15T13:28:23.666Z,6.70
2022-12-15T13:31:16.562Z,6.10
2022-12-15T13:33:49.198Z,7.27
2022-12-15T13:36:37.907Z,6.50
2022-12-15T13:39:16.628Z,6.70
2022-12-15T13:42:07.898Z,7.13
2022-12-15T13:44:51.445Z,6.63
2022-12-15T13:47:25.543Z,6.50
2022-12-15T13:50:11.595Z,6.50
2022-12-15T13:53:18.990Z,7.33
2022-12-15T13:56:11.482Z,6.63
2022-12-15T13:58:44.366Z,6.80
2022-12-15T14:01:30.110Z,7.03
2022-12-15T14:04:05.113Z,7.23
2022-12-15T14:06:43.941Z,6.07
2022-12-15T14:09:14.317Z,6.80
2022-12-15T14:11:58.614Z,6.40
2022-12-15T14:14:33.283Z,7.03
2022-12-15T14:17:02.907Z,6.83
2022-12-15T14:19:51.182Z,6.83
2022-12-15T14:22:34.706Z,6.53
2022-12-15T14:25:16.176Z,6.67
2022-12-15T14:27:42.769Z,6.43
2022-12-15T14:30:29.561Z,7.30
2022-12-15T14:33:02.095Z,6.33
2022-12-15T14:35:40.064Z,6.80
2022-12-15T14:38:11.901Z,6.40
2022-12-15T14:40:40.048Z,6.87
2022-12-15T14:43:36.497Z,6.80
2022-12-15T14:46:12.699Z,6.90
2022-12-15T14:48:45.119Z,7.13
2022-12-15T14:51:13.852Z,6.67
2022-12-15T14:53:42.756Z,7.83
2022-12-15T14:56:31.165Z,7.23
2022-12-15T14:59:18.449Z,7.40
2022-12-15T15:02:01.953Z,6.23
2022-12-15T15:04:34.043Z,6.63
2022-12-15T15:07:03.323Z,7.00
2022-12-15T15:09:32.885Z,6.50
2022-12-15T15:12:04.776Z,6.83
2022-12-15T15:14:44.642Z,6.47
2022-12-15T15:17:14.623Z,6.83
2022-12-15T15:19:49.356Z,7.43
2022-12-15T15:22:39.837Z,6.63
2022-12-15T15:25:28.212Z,6.23
2022-12-15T15:28:15.433Z,6.50
2022-12-15T15:30:46.035Z,6.33
2022-12-15T15:33:15.174Z,7.40
2022-12-15T15:35:43.293Z,6.80
2022-12-15T15:38:35.038Z,6.60
2022-12-15T15:41:32.399Z,6.70
2022-12-15T15:44:01.473Z,8.47
2022-12-15T15:46:33.858Z,6.83
2022-12-15T15:49:07.963Z,6.97
2022-12-15T15:51:36.029Z,7.27
2022-12-15T15:54:10.880Z,7.13
2022-12-15T15:56:37.722Z,7.23
2022-12-15T15:59:16.219Z,6.87
2022-12-15T16:01:44.332Z,7.67
2022-12-15T16:04:11.503Z,8.00
2022-12-15T16:06:43.514Z,7.57
2022-12-15T16:09:14.965Z,7.50
2022-12-15T16:11:41.676Z,6.73
2022-12-15T16:14:14.243Z,6.90
2022-12-15T16:16:43.263Z,6.77
2022-12-15T16:19:12.105Z,8.00
2022-12-15T16:21:40.831Z,7.43
2022-12-15T16:24:16.428Z,7.47
2022-12-15T16:26:50.562Z,7.03
2022-12-15T16:29:19.741Z,7.83
2022-12-15T16:31:46.574Z,8.33
2022-12-15T16:34:13.790Z,7.10
2022-12-15T16:36:41.076Z,7.97
2022-12-15T16:39:33.627Z,6.87
2022-12-15T16:42:00.965Z,7.80
2022-12-15T16:44:29.281Z,7.60
2022-12-15T16:46:56.805Z,7.90
2022-12-15T16:53:48.794Z,13.00
2022-12-15T16:56:15.732Z,9.47
2022-12-15T16:58:42.559Z,9.27
2022-12-15T17:01:11.416Z,8.20
2022-12-15T17:03:38.290Z,8.50
2022-12-15T17:06:07.340Z,8.40
2022-12-15T17:08:54.085Z,9.60
2022-12-15T17:11:26.689Z,9.00
2022-12-15T17:13:57.210Z,9.30
2022-12-15T17:16:25.838Z,9.40
2022-12-15T17:18:52.731Z,10.20
2022-12-15T17:21:33.040Z,10.57
2022-12-15T17:24:05.292Z,10.43
2022-12-15T17:26:36.419Z,10.07
2022-12-15T17:29:25.144Z,10.73
2022-12-15T17:31:52.055Z,9.60
2022-12-15T17:34:33.051Z,14.70
2022-12-15T17:37:04.311Z,11.03
2022-12-15T17:39:32.521Z,10.37
2022-12-15T17:42:01.144Z,9.40
2022-12-15T17:44:34.755Z,10.00
2022-12-15T17:47:04.555Z,9.93
2022-12-15T17:49:35.646Z,11.07
2022-12-15T17:52:07.800Z,11.03
2022-12-15T17:54:35.484Z,10.70
2022-12-15T17:57:02.152Z,11.93
2022-12-15T17:59:28.753Z,11.07
2022-12-15T18:01:57.069Z,11.00
2022-12-15T18:04:24.037Z,10.60
2022-12-15T18:06:59.562Z,10.87
2022-12-15T18:09:28.596Z,11.07
2022-12-15T18:11:55.348Z,11.50
2022-12-15T18:14:22.863Z,11.80
2022-12-15T18:16:49.801Z,10.70
2022-12-15T18:19:16.431Z,10.47
2022-12-15T18:21:43.111Z,12.20
2022-12-15T18:24:13.144Z,11.27
2022-12-15T18:26:39.751Z,11.33
2022-12-15T18:29:17.542Z,11.63
2022-12-15T18:31:46.597Z,12.13
2022-12-15T18:34:28.612Z,11.73
2022-12-15T18:37:02.074Z,12.27
2022-12-15T18:39:28.692Z,11.60
2022-12-15T18:41:55.394Z,12.30
2022-12-15T18:44:27.536Z,12.23
2022-12-15T18:46:55.325Z,12.90
2022-12-15T18:49:22.957Z,11.17
2022-12-15T18:51:50.249Z,12.30
2022-12-15T18:54:22.303Z,12.80
2022-12-15T18:56:49.528Z,11.83
2022-12-15T18:59:17.736Z,13.33
2022-12-15T19:01:46.376Z,13.33
2022-12-15T19:04:13.979Z,14.07
2022-12-15T19:06:41.817Z,12.90
2022-12-15T19:09:15.790Z,12.20
2022-12-15T19:12:04.659Z,11.80
2022-12-15T19:14:40.081Z,12.23
2022-12-15T19:17:42.062Z,12.40
2022-12-15T19:20:38.621Z,12.90
2022-12-15T19:23:06.580Z,12.50
2022-12-15T19:25:36.802Z,12.00
2022-12-15T19:28:03.926Z,12.87
2022-12-15T19:30:37.042Z,12.83
2022-12-15T19:33:08.210Z,12.43
2022-12-15T19:35:35.648Z,17.60
2022-12-15T19:38:03.609Z,13.00
2022-12-15T19:40:32.613Z,12.63
2022-12-15T19:43:00.313Z,12.90
2022-12-15T19:45:29.539Z,11.80
2022-12-15T19:47:57.031Z,14.03
2022-12-15T19:50:26.176Z,13.27
2022-12-15T19:52:56.492Z,13.77
2022-12-15T19:55:29.943Z,14.27
2022-12-15T19:57:56.664Z,14.23
2022-12-15T20:00:24.701Z,13.80
2022-12-15T20:02:54.513Z,14.67
2022-12-15T20:05:23.407Z,14.47
2022-12-15T20:07:52.167Z,13.03
2022-12-15T20:10:27.522Z,14.23
2022-12-15T20:12:58.954Z,14.83
2022-12-15T20:15:28.452Z,13.33
2022-12-15T20:17:56.386Z,13.17
2022-12-15T20:20:25.034Z,13.03
2022-12-15T20:22:54.596Z,14.23
2022-12-15T20:25:26.371Z,14.27
2022-12-15T20:27:53.031Z,13.80
2022-12-15T20:30:26.754Z,15.07
2022-12-15T20:32:53.622Z,13.43
2022-12-15T20:35:21.856Z,14.43
2022-12-15T20:37:49.644Z,14.83
2022-12-15T20:40:19.470Z,13.57
2022-12-15T20:42:46.449Z,14.27
2022-12-15T20:45:15.019Z,14.43
2022-12-15T20:47:43.731Z,13.50
2022-12-15T20:50:38.104Z,14.07
2022-12-15T20:53:13.702Z,15.87
2022-12-15T20:55:40.322Z,13.90
2022-12-15T20:58:06.962Z,13.50
2022-12-15T21:00:33.795Z,13.23
2022-12-15T21:03:00.738Z,13.83
2022-12-15T21:05:27.611Z,14.30
2022-12-15T21:07:54.299Z,13.57
2022-12-15T21:10:20.963Z,14.67
2022-12-15T21:12:49.289Z,13.33
2022-12-15T21:15:23.405Z,14.40
2022-12-15T21:18:08.871Z,14.60
2022-12-15T21:20:41.356Z,15.10
2022-12-15T21:23:24.306Z,14.40
2022-12-15T21:25:51.732Z,14.67
2022-12-15T21:28:18.607Z,14.53
2022-12-15T21:30:45.623Z,14.33
2022-12-15T21:33:12.530Z,13.70
2022-12-15T21:35:41.245Z,14.27
2022-12-15T21:38:23.571Z,13.90
2022-12-15T21:40:55.973Z,13.67
2022-12-15T21:43:28.670Z,14.10
2022-12-15T21:45:55.526Z,13.97
2022-12-15T21:48:40.732Z,13.80
2022-12-15T21:51:15.303Z,13.27
2022-12-15T21:53:43.146Z,14.17
2022-12-15T21:56:18.689Z,13.97
2022-12-15T21:58:48.837Z,14.10
2022-12-15T22:01:19.544Z,14.00
2022-12-15T22:03:53.167Z,14.20
2022-12-15T22:06:24.438Z,15.30
2022-12-15T22:08:53.383Z,14.13
2022-12-15T22:11:26.354Z,15.27
2022-12-15T22:13:55.189Z,15.77
2022-12-15T22:16:22.828Z,15.23
2022-12-15T22:18:53.096Z,14.33
2022-12-15T22:21:22.575Z,14.80
2022-12-15T22:23:50.677Z,15.63
2022-12-15T22:26:30.894Z,15.47
2022-12-15T22:29:01.225Z,15.60
2022-12-15T22:31:28.947Z,16.30
2022-12-15T22:33:55.618Z,15.00
2022-12-15T22:36:22.235Z,15.57
2022-12-15T22:38:48.856Z,15.40
2022-12-15T22:41:23.332Z,15.33
2022-12-15T22:43:56.228Z,14.77
2022-12-15T22:46:24.671Z,15.00
2022-12-15T22:48:52.735Z,14.17
2022-12-15T22:51:21.776Z,14.80
2022-12-15T22:53:48.440Z,15.33
2022-12-15T22:56:28.228Z,15.00
2022-12-15T22:59:00.668Z,14.77
2022-12-15T23:01:27.974Z,15.30
2022-12-15T23:03:55.473Z,14.50
2022-12-15T23:06:23.456Z,14.73
2022-12-15T23:08:55.654Z,15.03
2022-12-15T23:11:39.250Z,15.07
2022-12-15T23:14:17.125Z,14.63
2022-12-15T23:16:45.273Z,15.47
2022-12-15T23:19:23.839Z,15.77
2022-12-15T23:21:51.048Z,14.93
2022-12-15T23:24:18.557Z,15.10
2022-12-15T23:26:45.207Z,14.67
2022-12-15T23:29:11.818Z,15.47
2022-12-15T23:31:38.516Z,16.80
2022-12-15T23:34:05.322Z,14.73
2022-12-15T23:36:31.958Z,14.40
2022-12-15T23:38:58.658Z,15.07
2022-12-15T23:41:25.262Z,15.00
2022-12-15T23:43:52.004Z,14.83
2022-12-15T23:46:18.818Z,15.77
2022-12-15T23:48:45.645Z,16.07
2022-12-15T23:51:20.105Z,15.77
2022-12-15T23:53:47.905Z,15.93
2022-12-15T23:56:20.223Z,15.57
2022-12-15T23:58:49.096Z,15.80
